sensor_id;sensor_type;location;lat;lon;timestamp;temperature;humidity
20528;DHT22;23612;50.894;10.700;2023-03-31T00:00:27;9.80;99.90
20528;DHT22;23612;50.894;10.700;2023-03-31T00:02:52;9.80;99.90
20528;DHT22;23612;50.894;10.700;2023-03-31T00:05:19;9.80;99.90
20528;DHT22;23612;50.894;10.700;2023-03-31T00:07:46;9.90;99.90
20528;DHT22;23612;50.894;10.700;2023-03-31T00:10:13;9.90;99.90
20528;DHT22;23612;50.894;10.700;2023-03-31T00:12:39;9.90;99.90
20528;DHT22;23612;50.894;10.700;2023-03-31T00:15:05;9.90;99.90
20528;DHT22;23612;50.894;10.700;2023-03-31T00:17:31;9.90;99.90
20528;DHT22;23612;50.894;10.700;2023-03-31T00:19:58;10.00;99.90
20528;DHT22;23612;50.894;10.700;2023-03-31T00:22:26;10.00;99.90
20528;DHT22;23612;50.894;10.700;2023-03-31T00:24:52;10.10;99.90
20528;DHT22;23612;50.894;10.700;2023-03-31T00:27:18;10.10;99.90
20528;DHT22;23612;50.894;10.700;2023-03-31T00:29:43;10.10;99.90
20528;DHT22;23612;50.894;10.700;2023-03-31T00:32:09;10.10;99.90
20528;DHT22;23612;50.894;10.700;2023-03-31T00:34:36;10.10;99.90
20528;DHT22;23612;50.894;10.700;2023-03-31T00:37:02;10.10;99.90
20528;DHT22;23612;50.894;10.700;2023-03-31T00:39:28;10.00;99.90
20528;DHT22;23612;50.894;10.700;2023-03-31T00:42:01;10.00;99.90
20528;DHT22;23612;50.894;10.700;2023-03-31T00:44:28;10.00;99.90
20528;DHT22;23612;50.894;10.700;2023-03-31T00:47:12;10.00;99.90
20528;DHT22;23612;50.894;10.700;2023-03-31T00:49:42;9.90;99.90
20528;DHT22;23612;50.894;10.700;2023-03-31T00:52:16;9.90;99.90
20528;DHT22;23612;50.894;10.700;2023-03-31T00:54:51;9.90;99.90
20528;DHT22;23612;50.894;10.700;2023-03-31T00:57:19;9.90;99.90
20528;DHT22;23612;50.894;10.700;2023-03-31T00:59:50;9.90;99.90
20528;DHT22;23612;50.894;10.700;2023-03-31T01:02:17;9.80;99.90
20528;DHT22;23612;50.894;10.700;2023-03-31T01:04:48;9.80;99.90
20528;DHT22;23612;50.894;10.700;2023-03-31T01:07:24;9.80;99.90
20528;DHT22;23612;50.894;10.700;2023-03-31T01:09:52;9.80;99.90
20528;DHT22;23612;50.894;10.700;2023-03-31T01:12:21;9.70;99.90
20528;DHT22;23612;50.894;10.700;2023-03-31T01:14:49;9.70;99.90
20528;DHT22;23612;50.894;10.700;2023-03-31T01:17:17;9.70;99.90
20528;DHT22;23612;50.894;10.700;2023-03-31T01:25:59;9.50;99.90
20528;DHT22;23612;50.894;10.700;2023-03-31T01:37:00;9.60;99.90
20528;DHT22;23612;50.894;10.700;2023-03-31T01:39:56;9.60;99.90
20528;DHT22;23612;50.894;10.700;2023-03-31T01:48:13;9.70;99.90
20528;DHT22;23612;50.894;10.700;2023-03-31T01:50:47;9.70;99.90
20528;DHT22;23612;50.894;10.700;2023-03-31T01:53:39;9.80;99.90
20528;DHT22;23612;50.894;10.700;2023-03-31T02:01:28;9.70;99.90
20528;DHT22;23612;50.894;10.700;2023-03-31T02:03:58;9.70;99.90
20528;DHT22;23612;50.894;10.700;2023-03-31T02:06:31;9.70;99.90
20528;DHT22;23612;50.894;10.700;2023-03-31T02:09:05;9.70;99.90
20528;DHT22;23612;50.894;10.700;2023-03-31T02:11:33;9.70;99.90
20528;DHT22;23612;50.894;10.700;2023-03-31T02:13:59;9.70;99.90
20528;DHT22;23612;50.894;10.700;2023-03-31T02:16:27;9.70;99.90
20528;DHT22;23612;50.894;10.700;2023-03-31T02:18:57;9.60;99.90
20528;DHT22;23612;50.894;10.700;2023-03-31T02:21:30;9.60;99.90
20528;DHT22;23612;50.894;10.700;2023-03-31T02:23:58;9.60;99.90
20528;DHT22;23612;50.894;10.700;2023-03-31T02:26:28;9.60;99.90
20528;DHT22;23612;50.894;10.700;2023-03-31T02:28:56;9.60;99.90
20528;DHT22;23612;50.894;10.700;2023-03-31T02:31:43;9.50;99.90
20528;DHT22;23612;50.894;10.700;2023-03-31T02:34:10;9.50;99.90
20528;DHT22;23612;50.894;10.700;2023-03-31T02:36:36;9.50;99.90
20528;DHT22;23612;50.894;10.700;2023-03-31T02:39:05;9.50;99.90
20528;DHT22;23612;50.894;10.700;2023-03-31T02:41:32;9.50;99.90
20528;DHT22;23612;50.894;10.700;2023-03-31T02:43:58;9.50;99.90
20528;DHT22;23612;50.894;10.700;2023-03-31T02:46:24;9.50;99.90
20528;DHT22;23612;50.894;10.700;2023-03-31T02:48:53;9.50;99.90
20528;DHT22;23612;50.894;10.700;2023-03-31T02:51:31;9.50;99.90
20528;DHT22;23612;50.894;10.700;2023-03-31T03:00:06;9.50;99.90
20528;DHT22;23612;50.894;10.700;2023-03-31T03:02:55;9.50;99.90
20528;DHT22;23612;50.894;10.700;2023-03-31T03:08:26;9.50;99.90
20528;DHT22;23612;50.894;10.700;2023-03-31T03:16:25;9.40;99.90
20528;DHT22;23612;50.894;10.700;2023-03-31T03:19:01;9.40;99.90
20528;DHT22;23612;50.894;10.700;2023-03-31T03:21:28;9.40;99.90
20528;DHT22;23612;50.894;10.700;2023-03-31T03:23:54;9.40;99.90
20528;DHT22;23612;50.894;10.700;2023-03-31T03:26:20;9.30;99.90
20528;DHT22;23612;50.894;10.700;2023-03-31T03:28:48;9.30;99.90
20528;DHT22;23612;50.894;10.700;2023-03-31T03:31:14;9.30;99.90
20528;DHT22;23612;50.894;10.700;2023-03-31T03:33:40;9.40;99.90
20528;DHT22;23612;50.894;10.700;2023-03-31T03:36:06;9.40;99.90
20528;DHT22;23612;50.894;10.700;2023-03-31T03:38:32;9.40;99.90
20528;DHT22;23612;50.894;10.700;2023-03-31T03:40:57;9.40;99.90
20528;DHT22;23612;50.894;10.700;2023-03-31T03:43:23;9.40;99.90
20528;DHT22;23612;50.894;10.700;2023-03-31T03:45:49;9.30;99.90
20528;DHT22;23612;50.894;10.700;2023-03-31T03:48:14;9.40;99.90
20528;DHT22;23612;50.894;10.700;2023-03-31T03:50:40;9.40;99.90
20528;DHT22;23612;50.894;10.700;2023-03-31T03:53:06;9.30;99.90
20528;DHT22;23612;50.894;10.700;2023-03-31T03:55:32;9.40;99.90
20528;DHT22;23612;50.894;10.700;2023-03-31T03:57:58;9.40;99.90
20528;DHT22;23612;50.894;10.700;2023-03-31T04:00:24;9.40;99.90
20528;DHT22;23612;50.894;10.700;2023-03-31T04:02:49;9.30;99.90
20528;DHT22;23612;50.894;10.700;2023-03-31T04:05:15;9.30;99.90
20528;DHT22;23612;50.894;10.700;2023-03-31T04:07:41;9.30;99.90
20528;DHT22;23612;50.894;10.700;2023-03-31T04:10:07;9.30;99.90
20528;DHT22;23612;50.894;10.700;2023-03-31T04:12:34;9.30;99.90
20528;DHT22;23612;50.894;10.700;2023-03-31T04:14:59;9.30;99.90
20528;DHT22;23612;50.894;10.700;2023-03-31T04:17:25;9.30;99.90
20528;DHT22;23612;50.894;10.700;2023-03-31T04:19:58;9.30;99.90
20528;DHT22;23612;50.894;10.700;2023-03-31T04:22:29;9.20;99.90
20528;DHT22;23612;50.894;10.700;2023-03-31T04:25:02;9.20;99.90
20528;DHT22;23612;50.894;10.700;2023-03-31T04:27:28;9.10;99.90
20528;DHT22;23612;50.894;10.700;2023-03-31T04:29:55;9.10;99.90
20528;DHT22;23612;50.894;10.700;2023-03-31T04:32:21;9.00;99.90
20528;DHT22;23612;50.894;10.700;2023-03-31T04:34:47;9.00;99.90
20528;DHT22;23612;50.894;10.700;2023-03-31T04:37:17;9.00;99.90
20528;DHT22;23612;50.894;10.700;2023-03-31T04:39:43;9.00;99.90
20528;DHT22;23612;50.894;10.700;2023-03-31T04:42:11;8.90;99.90
20528;DHT22;23612;50.894;10.700;2023-03-31T04:44:37;8.90;99.90
20528;DHT22;23612;50.894;10.700;2023-03-31T04:47:02;8.90;99.90
20528;DHT22;23612;50.894;10.700;2023-03-31T04:49:28;8.80;99.90
20528;DHT22;23612;50.894;10.700;2023-03-31T04:51:53;8.80;99.90
20528;DHT22;23612;50.894;10.700;2023-03-31T04:54:19;8.80;99.90
20528;DHT22;23612;50.894;10.700;2023-03-31T04:56:45;8.80;99.90
20528;DHT22;23612;50.894;10.700;2023-03-31T04:59:10;8.90;99.90
20528;DHT22;23612;50.894;10.700;2023-03-31T05:01:36;8.90;99.90
20528;DHT22;23612;50.894;10.700;2023-03-31T05:04:03;8.90;99.90
20528;DHT22;23612;50.894;10.700;2023-03-31T05:06:29;8.80;99.90
20528;DHT22;23612;50.894;10.700;2023-03-31T05:08:54;8.80;99.90
20528;DHT22;23612;50.894;10.700;2023-03-31T05:11:20;8.90;99.90
20528;DHT22;23612;50.894;10.700;2023-03-31T05:13:46;8.90;99.90
20528;DHT22;23612;50.894;10.700;2023-03-31T05:16:12;8.80;99.90
20528;DHT22;23612;50.894;10.700;2023-03-31T05:18:39;8.80;99.90
20528;DHT22;23612;50.894;10.700;2023-03-31T05:21:13;8.90;99.90
20528;DHT22;23612;50.894;10.700;2023-03-31T05:23:39;8.80;99.90
20528;DHT22;23612;50.894;10.700;2023-03-31T05:26:04;8.80;99.90
20528;DHT22;23612;50.894;10.700;2023-03-31T05:28:30;8.80;99.90
20528;DHT22;23612;50.894;10.700;2023-03-31T05:30:58;8.90;99.90
20528;DHT22;23612;50.894;10.700;2023-03-31T05:33:25;9.00;99.90
20528;DHT22;23612;50.894;10.700;2023-03-31T05:35:51;9.00;99.90
20528;DHT22;23612;50.894;10.700;2023-03-31T05:38:17;9.10;99.90
20528;DHT22;23612;50.894;10.700;2023-03-31T05:40:42;9.10;99.90
20528;DHT22;23612;50.894;10.700;2023-03-31T05:43:08;9.20;99.90
20528;DHT22;23612;50.894;10.700;2023-03-31T05:45:33;9.20;99.90
20528;DHT22;23612;50.894;10.700;2023-03-31T05:47:58;9.20;99.90
20528;DHT22;23612;50.894;10.700;2023-03-31T05:50:24;9.30;99.90
20528;DHT22;23612;50.894;10.700;2023-03-31T05:52:50;9.30;99.90
20528;DHT22;23612;50.894;10.700;2023-03-31T05:55:15;9.30;99.90
20528;DHT22;23612;50.894;10.700;2023-03-31T05:57:41;9.40;99.90
20528;DHT22;23612;50.894;10.700;2023-03-31T06:00:07;9.40;99.90
20528;DHT22;23612;50.894;10.700;2023-03-31T06:02:35;9.50;99.90
20528;DHT22;23612;50.894;10.700;2023-03-31T06:05:00;9.50;99.90
20528;DHT22;23612;50.894;10.700;2023-03-31T06:07:26;9.50;99.90
20528;DHT22;23612;50.894;10.700;2023-03-31T06:09:51;9.60;99.90
20528;DHT22;23612;50.894;10.700;2023-03-31T06:12:17;9.60;99.90
20528;DHT22;23612;50.894;10.700;2023-03-31T06:14:42;9.60;99.90
20528;DHT22;23612;50.894;10.700;2023-03-31T06:17:08;9.70;99.90
20528;DHT22;23612;50.894;10.700;2023-03-31T06:19:33;9.70;99.90
20528;DHT22;23612;50.894;10.700;2023-03-31T06:21:59;9.70;99.90
20528;DHT22;23612;50.894;10.700;2023-03-31T06:24:24;9.80;99.90
20528;DHT22;23612;50.894;10.700;2023-03-31T06:26:50;9.80;99.90
20528;DHT22;23612;50.894;10.700;2023-03-31T06:29:15;9.80;99.90
20528;DHT22;23612;50.894;10.700;2023-03-31T06:31:41;9.80;99.90
20528;DHT22;23612;50.894;10.700;2023-03-31T06:34:06;9.80;99.90
20528;DHT22;23612;50.894;10.700;2023-03-31T06:36:32;9.80;99.90
20528;DHT22;23612;50.894;10.700;2023-03-31T06:38:57;9.90;99.90
20528;DHT22;23612;50.894;10.700;2023-03-31T06:41:23;9.90;99.90
20528;DHT22;23612;50.894;10.700;2023-03-31T06:43:48;9.90;99.90
20528;DHT22;23612;50.894;10.700;2023-03-31T06:46:14;9.90;99.90
20528;DHT22;23612;50.894;10.700;2023-03-31T06:48:40;9.90;99.90
20528;DHT22;23612;50.894;10.700;2023-03-31T06:51:07;9.90;99.90
20528;DHT22;23612;50.894;10.700;2023-03-31T06:53:33;9.80;99.90
20528;DHT22;23612;50.894;10.700;2023-03-31T06:55:59;9.90;99.90
20528;DHT22;23612;50.894;10.700;2023-03-31T06:58:24;9.90;99.90
20528;DHT22;23612;50.894;10.700;2023-03-31T07:00:50;9.90;99.90
20528;DHT22;23612;50.894;10.700;2023-03-31T07:03:17;10.00;99.90
20528;DHT22;23612;50.894;10.700;2023-03-31T07:05:47;10.20;99.90
20528;DHT22;23612;50.894;10.700;2023-03-31T07:08:13;10.40;99.90
20528;DHT22;23612;50.894;10.700;2023-03-31T07:10:38;10.70;99.90
20528;DHT22;23612;50.894;10.700;2023-03-31T07:13:04;10.80;99.90
20528;DHT22;23612;50.894;10.700;2023-03-31T07:15:29;10.70;99.90
20528;DHT22;23612;50.894;10.700;2023-03-31T07:17:56;10.70;99.90
20528;DHT22;23612;50.894;10.700;2023-03-31T07:20:26;10.60;99.90
20528;DHT22;23612;50.894;10.700;2023-03-31T07:22:52;10.60;99.90
20528;DHT22;23612;50.894;10.700;2023-03-31T07:25:17;10.60;99.90
20528;DHT22;23612;50.894;10.700;2023-03-31T07:27:43;10.70;99.90
20528;DHT22;23612;50.894;10.700;2023-03-31T07:30:15;10.70;99.90
20528;DHT22;23612;50.894;10.700;2023-03-31T07:32:41;10.70;99.90
20528;DHT22;23612;50.894;10.700;2023-03-31T07:35:10;10.60;99.90
20528;DHT22;23612;50.894;10.700;2023-03-31T07:37:37;10.50;99.90
20528;DHT22;23612;50.894;10.700;2023-03-31T07:40:04;10.50;99.90
20528;DHT22;23612;50.894;10.700;2023-03-31T07:42:31;10.40;99.90
20528;DHT22;23612;50.894;10.700;2023-03-31T07:44:57;10.30;99.90
20528;DHT22;23612;50.894;10.700;2023-03-31T07:47:23;10.30;99.90
20528;DHT22;23612;50.894;10.700;2023-03-31T07:49:48;10.40;99.90
20528;DHT22;23612;50.894;10.700;2023-03-31T07:52:14;10.40;99.90
20528;DHT22;23612;50.894;10.700;2023-03-31T07:54:40;10.40;99.90
20528;DHT22;23612;50.894;10.700;2023-03-31T07:57:05;10.50;99.90
20528;DHT22;23612;50.894;10.700;2023-03-31T07:59:32;10.50;99.90
20528;DHT22;23612;50.894;10.700;2023-03-31T08:01:58;10.60;99.90
20528;DHT22;23612;50.894;10.700;2023-03-31T08:04:24;10.60;99.90
20528;DHT22;23612;50.894;10.700;2023-03-31T08:06:49;10.60;99.90
20528;DHT22;23612;50.894;10.700;2023-03-31T08:09:16;10.70;99.90
20528;DHT22;23612;50.894;10.700;2023-03-31T08:11:44;10.70;99.90
20528;DHT22;23612;50.894;10.700;2023-03-31T08:14:10;10.70;99.90
20528;DHT22;23612;50.894;10.700;2023-03-31T08:16:35;10.70;99.90
20528;DHT22;23612;50.894;10.700;2023-03-31T08:19:01;10.70;99.90
20528;DHT22;23612;50.894;10.700;2023-03-31T08:21:29;10.70;99.90
20528;DHT22;23612;50.894;10.700;2023-03-31T08:23:55;10.60;99.90
20528;DHT22;23612;50.894;10.700;2023-03-31T08:26:20;10.60;99.90
20528;DHT22;23612;50.894;10.700;2023-03-31T08:28:48;10.60;99.90
20528;DHT22;23612;50.894;10.700;2023-03-31T08:31:15;10.50;99.90
20528;DHT22;23612;50.894;10.700;2023-03-31T08:33:41;10.50;99.90
20528;DHT22;23612;50.894;10.700;2023-03-31T08:36:08;10.40;99.90
20528;DHT22;23612;50.894;10.700;2023-03-31T08:38:38;10.30;99.90
20528;DHT22;23612;50.894;10.700;2023-03-31T08:41:12;10.40;99.90
20528;DHT22;23612;50.894;10.700;2023-03-31T08:43:43;10.40;99.90
20528;DHT22;23612;50.894;10.700;2023-03-31T08:46:11;10.40;99.90
20528;DHT22;23612;50.894;10.700;2023-03-31T08:48:40;10.40;99.90
20528;DHT22;23612;50.894;10.700;2023-03-31T08:51:15;10.40;99.90
20528;DHT22;23612;50.894;10.700;2023-03-31T08:53:47;10.30;99.90
20528;DHT22;23612;50.894;10.700;2023-03-31T08:56:19;10.20;99.90
20528;DHT22;23612;50.894;10.700;2023-03-31T08:58:47;10.10;99.90
20528;DHT22;23612;50.894;10.700;2023-03-31T09:09:48;9.70;99.90
20528;DHT22;23612;50.894;10.700;2023-03-31T09:12:22;9.70;99.90
20528;DHT22;23612;50.894;10.700;2023-03-31T09:14:59;9.70;99.90
20528;DHT22;23612;50.894;10.700;2023-03-31T09:17:32;9.70;99.90
20528;DHT22;23612;50.894;10.700;2023-03-31T09:19:59;9.80;99.90
20528;DHT22;23612;50.894;10.700;2023-03-31T09:22:32;9.90;99.90
20528;DHT22;23612;50.894;10.700;2023-03-31T09:25:10;10.10;99.90
20528;DHT22;23612;50.894;10.700;2023-03-31T09:27:39;10.20;99.90
20528;DHT22;23612;50.894;10.700;2023-03-31T09:30:15;10.30;99.90
20528;DHT22;23612;50.894;10.700;2023-03-31T09:32:45;10.20;99.90
20528;DHT22;23612;50.894;10.700;2023-03-31T09:35:21;10.10;99.90
20528;DHT22;23612;50.894;10.700;2023-03-31T09:37:47;10.20;99.90
20528;DHT22;23612;50.894;10.700;2023-03-31T09:40:19;10.20;99.90
20528;DHT22;23612;50.894;10.700;2023-03-31T09:42:46;10.10;99.90
20528;DHT22;23612;50.894;10.700;2023-03-31T09:45:17;10.10;99.90
20528;DHT22;23612;50.894;10.700;2023-03-31T09:47:51;10.10;99.90
20528;DHT22;23612;50.894;10.700;2023-03-31T09:50:18;9.90;99.90
20528;DHT22;23612;50.894;10.700;2023-03-31T09:52:52;9.80;99.90
20528;DHT22;23612;50.894;10.700;2023-03-31T09:55:32;9.80;99.90
20528;DHT22;23612;50.894;10.700;2023-03-31T09:58:01;9.90;99.90
20528;DHT22;23612;50.894;10.700;2023-03-31T10:00:33;9.70;99.90
20528;DHT22;23612;50.894;10.700;2023-03-31T10:03:02;9.60;99.90
20528;DHT22;23612;50.894;10.700;2023-03-31T10:05:38;9.60;99.90
20528;DHT22;23612;50.894;10.700;2023-03-31T10:10:54;9.10;99.90
20528;DHT22;23612;50.894;10.700;2023-03-31T10:13:26;8.70;99.90
20528;DHT22;23612;50.894;10.700;2023-03-31T10:16:04;8.50;99.90
20528;DHT22;23612;50.894;10.700;2023-03-31T10:18:41;8.50;99.90
20528;DHT22;23612;50.894;10.700;2023-03-31T10:21:18;8.40;99.90
20528;DHT22;23612;50.894;10.700;2023-03-31T10:23:48;8.50;99.90
20528;DHT22;23612;50.894;10.700;2023-03-31T10:26:19;8.50;99.90
20528;DHT22;23612;50.894;10.700;2023-03-31T10:28:47;8.60;99.90
20528;DHT22;23612;50.894;10.700;2023-03-31T10:31:17;8.60;99.90
20528;DHT22;23612;50.894;10.700;2023-03-31T10:33:45;8.70;99.90
20528;DHT22;23612;50.894;10.700;2023-03-31T10:36:26;8.80;99.90
20528;DHT22;23612;50.894;10.700;2023-03-31T10:38:53;8.80;99.90
20528;DHT22;23612;50.894;10.700;2023-03-31T10:41:23;8.90;99.90
20528;DHT22;23612;50.894;10.700;2023-03-31T10:43:54;9.00;99.90
20528;DHT22;23612;50.894;10.700;2023-03-31T10:46:39;9.00;99.90
20528;DHT22;23612;50.894;10.700;2023-03-31T10:49:38;9.20;99.90
20528;DHT22;23612;50.894;10.700;2023-03-31T10:52:23;9.50;99.90
20528;DHT22;23612;50.894;10.700;2023-03-31T10:54:59;9.90;99.90
20528;DHT22;23612;50.894;10.700;2023-03-31T10:58:00;10.30;99.90
20528;DHT22;23612;50.894;10.700;2023-03-31T11:01:17;11.00;99.90
20528;DHT22;23612;50.894;10.700;2023-03-31T11:17:48;13.30;99.90
20528;DHT22;23612;50.894;10.700;2023-03-31T11:20:31;14.30;99.90
20528;DHT22;23612;50.894;10.700;2023-03-31T11:26:00;16.20;99.90
20528;DHT22;23612;50.894;10.700;2023-03-31T11:28:38;17.00;99.90
20528;DHT22;23612;50.894;10.700;2023-03-31T11:31:26;17.60;99.90
20528;DHT22;23612;50.894;10.700;2023-03-31T11:34:07;17.40;99.90
20528;DHT22;23612;50.894;10.700;2023-03-31T11:39:27;17.20;99.90
20528;DHT22;23612;50.894;10.700;2023-03-31T11:42:08;17.50;99.90
20528;DHT22;23612;50.894;10.700;2023-03-31T11:44:44;16.90;99.90
20528;DHT22;23612;50.894;10.700;2023-03-31T11:47:15;15.70;99.90
20528;DHT22;23612;50.894;10.700;2023-03-31T11:49:50;14.90;99.90
20528;DHT22;23612;50.894;10.700;2023-03-31T11:52:19;14.30;99.90
20528;DHT22;23612;50.894;10.700;2023-03-31T11:54:57;13.80;99.90
20528;DHT22;23612;50.894;10.700;2023-03-31T12:05:30;15.70;99.90
20528;DHT22;23612;50.894;10.700;2023-03-31T12:08:03;17.20;99.90
20528;DHT22;23612;50.894;10.700;2023-03-31T12:10:35;18.40;99.90
20528;DHT22;23612;50.894;10.700;2023-03-31T12:13:18;18.90;99.90
20528;DHT22;23612;50.894;10.700;2023-03-31T12:15:57;18.40;99.90
20528;DHT22;23612;50.894;10.700;2023-03-31T12:18:29;16.90;99.90
20528;DHT22;23612;50.894;10.700;2023-03-31T12:21:01;15.90;99.90
20528;DHT22;23612;50.894;10.700;2023-03-31T12:23:30;15.10;99.90
20528;DHT22;23612;50.894;10.700;2023-03-31T12:26:07;14.20;99.90
20528;DHT22;23612;50.894;10.700;2023-03-31T12:28:37;13.50;99.90
20528;DHT22;23612;50.894;10.700;2023-03-31T12:31:06;13.10;99.90
20528;DHT22;23612;50.894;10.700;2023-03-31T12:33:38;12.80;99.90
20528;DHT22;23612;50.894;10.700;2023-03-31T12:36:16;12.50;99.90
20528;DHT22;23612;50.894;10.700;2023-03-31T12:42:18;12.00;99.90
20528;DHT22;23612;50.894;10.700;2023-03-31T12:50:40;9.70;99.90
20528;DHT22;23612;50.894;10.700;2023-03-31T12:53:30;9.10;99.90
20528;DHT22;23612;50.894;10.700;2023-03-31T12:56:00;8.60;99.90
20528;DHT22;23612;50.894;10.700;2023-03-31T12:58:34;8.40;99.90
20528;DHT22;23612;50.894;10.700;2023-03-31T13:06:00;8.00;99.90
20528;DHT22;23612;50.894;10.700;2023-03-31T13:11:14;8.10;99.90
20528;DHT22;23612;50.894;10.700;2023-03-31T13:14:10;8.20;99.90
20528;DHT22;23612;50.894;10.700;2023-03-31T13:16:37;8.10;99.90
20528;DHT22;23612;50.894;10.700;2023-03-31T13:19:03;8.20;99.90
20528;DHT22;23612;50.894;10.700;2023-03-31T13:21:29;8.10;99.90
20528;DHT22;23612;50.894;10.700;2023-03-31T13:24:00;8.10;99.90
20528;DHT22;23612;50.894;10.700;2023-03-31T13:26:39;8.10;99.90
20528;DHT22;23612;50.894;10.700;2023-03-31T13:34:27;8.30;99.90
20528;DHT22;23612;50.894;10.700;2023-03-31T13:40:48;9.00;99.90
20528;DHT22;23612;50.894;10.700;2023-03-31T13:57:09;10.20;99.90
20528;DHT22;23612;50.894;10.700;2023-03-31T14:06:01;10.40;99.90
20528;DHT22;23612;50.894;10.700;2023-03-31T14:08:38;10.80;99.90
20528;DHT22;23612;50.894;10.700;2023-03-31T14:11:24;11.20;99.90
20528;DHT22;23612;50.894;10.700;2023-03-31T14:14:11;11.40;99.90
20528;DHT22;23612;50.894;10.700;2023-03-31T14:16:44;11.40;99.90
20528;DHT22;23612;50.894;10.700;2023-03-31T14:22:31;11.10;99.90
20528;DHT22;23612;50.894;10.700;2023-03-31T14:25:29;11.00;99.90
20528;DHT22;23612;50.894;10.700;2023-03-31T14:28:09;11.00;99.90
20528;DHT22;23612;50.894;10.700;2023-03-31T14:37:03;11.40;99.90
20528;DHT22;23612;50.894;10.700;2023-03-31T14:39:32;11.40;99.90
20528;DHT22;23612;50.894;10.700;2023-03-31T14:42:02;11.50;99.90
20528;DHT22;23612;50.894;10.700;2023-03-31T14:44:28;11.50;99.90
20528;DHT22;23612;50.894;10.700;2023-03-31T14:46:56;11.50;99.90
20528;DHT22;23612;50.894;10.700;2023-03-31T14:49:34;11.60;99.90
20528;DHT22;23612;50.894;10.700;2023-03-31T14:52:11;11.90;99.90
20528;DHT22;23612;50.894;10.700;2023-03-31T14:54:37;12.40;99.90
20528;DHT22;23612;50.894;10.700;2023-03-31T14:57:04;12.70;99.90
20528;DHT22;23612;50.894;10.700;2023-03-31T14:59:32;13.00;99.90
20528;DHT22;23612;50.894;10.700;2023-03-31T15:02:00;12.90;99.90
20528;DHT22;23612;50.894;10.700;2023-03-31T15:04:29;12.80;99.90
20528;DHT22;23612;50.894;10.700;2023-03-31T15:06:55;12.60;99.90
20528;DHT22;23612;50.894;10.700;2023-03-31T15:09:32;12.50;99.90
20528;DHT22;23612;50.894;10.700;2023-03-31T15:12:01;12.60;99.90
20528;DHT22;23612;50.894;10.700;2023-03-31T15:14:32;12.60;99.90
20528;DHT22;23612;50.894;10.700;2023-03-31T15:16:59;12.40;99.90
20528;DHT22;23612;50.894;10.700;2023-03-31T15:19:32;12.10;99.90
20528;DHT22;23612;50.894;10.700;2023-03-31T15:22:17;12.10;99.90
20528;DHT22;23612;50.894;10.700;2023-03-31T15:24:43;11.90;99.90
20528;DHT22;23612;50.894;10.700;2023-03-31T15:29:42;11.60;99.90
20528;DHT22;23612;50.894;10.700;2023-03-31T15:34:49;11.50;99.90
20528;DHT22;23612;50.894;10.700;2023-03-31T15:37:18;11.50;99.90
20528;DHT22;23612;50.894;10.700;2023-03-31T15:39:46;11.30;99.90
20528;DHT22;23612;50.894;10.700;2023-03-31T15:42:12;11.40;99.90
20528;DHT22;23612;50.894;10.700;2023-03-31T15:44:53;11.40;99.90
20528;DHT22;23612;50.894;10.700;2023-03-31T15:47:27;11.40;99.90
20528;DHT22;23612;50.894;10.700;2023-03-31T15:50:01;11.50;99.90
20528;DHT22;23612;50.894;10.700;2023-03-31T15:52:38;11.50;99.90
20528;DHT22;23612;50.894;10.700;2023-03-31T15:57:57;11.50;99.90
20528;DHT22;23612;50.894;10.700;2023-03-31T16:03:33;11.40;99.90
20528;DHT22;23612;50.894;10.700;2023-03-31T16:06:08;11.30;99.90
20528;DHT22;23612;50.894;10.700;2023-03-31T16:08:43;11.30;99.90
20528;DHT22;23612;50.894;10.700;2023-03-31T16:11:14;11.10;99.90
20528;DHT22;23612;50.894;10.700;2023-03-31T16:13:46;11.10;99.90
20528;DHT22;23612;50.894;10.700;2023-03-31T16:16:16;11.10;99.90
20528;DHT22;23612;50.894;10.700;2023-03-31T16:18:48;11.10;99.90
20528;DHT22;23612;50.894;10.700;2023-03-31T16:21:20;11.10;99.90
20528;DHT22;23612;50.894;10.700;2023-03-31T16:23:51;11.10;99.90
20528;DHT22;23612;50.894;10.700;2023-03-31T16:26:26;11.00;99.90
20528;DHT22;23612;50.894;10.700;2023-03-31T16:28:53;11.00;99.90
20528;DHT22;23612;50.894;10.700;2023-03-31T16:31:36;10.90;99.90
20528;DHT22;23612;50.894;10.700;2023-03-31T16:34:05;10.90;99.90
20528;DHT22;23612;50.894;10.700;2023-03-31T16:36:31;10.80;99.90
20528;DHT22;23612;50.894;10.700;2023-03-31T16:38:56;10.60;99.90
20528;DHT22;23612;50.894;10.700;2023-03-31T16:41:24;10.40;99.90
20528;DHT22;23612;50.894;10.700;2023-03-31T16:43:52;10.20;99.90
20528;DHT22;23612;50.894;10.700;2023-03-31T16:46:19;10.10;99.90
20528;DHT22;23612;50.894;10.700;2023-03-31T16:48:44;9.90;99.90
20528;DHT22;23612;50.894;10.700;2023-03-31T16:51:10;9.80;99.90
20528;DHT22;23612;50.894;10.700;2023-03-31T16:53:36;9.60;99.90
20528;DHT22;23612;50.894;10.700;2023-03-31T16:56:02;9.40;99.90
20528;DHT22;23612;50.894;10.700;2023-03-31T16:58:28;9.30;99.90
20528;DHT22;23612;50.894;10.700;2023-03-31T17:00:55;9.30;99.90
20528;DHT22;23612;50.894;10.700;2023-03-31T17:03:21;9.20;99.90
20528;DHT22;23612;50.894;10.700;2023-03-31T17:05:49;9.10;99.90
20528;DHT22;23612;50.894;10.700;2023-03-31T17:08:17;9.00;99.90
20528;DHT22;23612;50.894;10.700;2023-03-31T17:10:50;8.80;99.90
20528;DHT22;23612;50.894;10.700;2023-03-31T17:13:16;8.70;99.90
20528;DHT22;23612;50.894;10.700;2023-03-31T17:15:41;8.70;99.90
20528;DHT22;23612;50.894;10.700;2023-03-31T17:18:07;8.80;99.90
20528;DHT22;23612;50.894;10.700;2023-03-31T17:20:32;8.80;99.90
20528;DHT22;23612;50.894;10.700;2023-03-31T17:22:58;8.80;99.90
20528;DHT22;23612;50.894;10.700;2023-03-31T17:25:24;8.80;99.90
20528;DHT22;23612;50.894;10.700;2023-03-31T17:27:50;8.80;99.90
20528;DHT22;23612;50.894;10.700;2023-03-31T17:30:16;8.80;99.90
20528;DHT22;23612;50.894;10.700;2023-03-31T17:32:41;8.80;99.90
20528;DHT22;23612;50.894;10.700;2023-03-31T17:35:07;8.90;99.90
20528;DHT22;23612;50.894;10.700;2023-03-31T17:37:35;8.80;99.90
20528;DHT22;23612;50.894;10.700;2023-03-31T17:40:00;8.80;99.90
20528;DHT22;23612;50.894;10.700;2023-03-31T17:42:26;8.90;99.90
20528;DHT22;23612;50.894;10.700;2023-03-31T17:44:51;9.00;99.90
20528;DHT22;23612;50.894;10.700;2023-03-31T17:47:18;9.00;99.90
20528;DHT22;23612;50.894;10.700;2023-03-31T17:49:45;9.00;99.90
20528;DHT22;23612;50.894;10.700;2023-03-31T17:52:10;9.00;99.90
20528;DHT22;23612;50.894;10.700;2023-03-31T17:54:36;9.10;99.90
20528;DHT22;23612;50.894;10.700;2023-03-31T17:57:02;9.10;99.90
20528;DHT22;23612;50.894;10.700;2023-03-31T17:59:28;9.10;99.90
20528;DHT22;23612;50.894;10.700;2023-03-31T18:01:53;9.20;99.90
20528;DHT22;23612;50.894;10.700;2023-03-31T18:04:19;9.20;99.90
20528;DHT22;23612;50.894;10.700;2023-03-31T18:06:45;9.20;99.90